Time;durP1;ratioP1;P1;durP2;ratioP2;P2;SDS_P1;SDS_P2;PMS_P1;PMS_P2;Temp;Humidity;BMP_temperature;BMP_pressure;BME280_temperature;BME280_humidity;BME280_pressure;Samples;Min_cycle;Max_cycle;Signal;HPM_P1;HPM_P2
2023/02/12 00:01:29;;;;;;;3.33;2.33;;;;;;;;;;5011600;28;20461;-46
2023/02/12 00:03:55;;;;;;;3.42;2.55;;;;;;;;;;5011013;28;20200;-46
2023/02/12 00:06:21;;;;;;;2.47;2.28;;;;;;;;;;5005635;28;20188;-46
2023/02/12 00:08:51;;;;;;;2.90;2.33;;;;;;;;;;5004198;28;20206;-46
2023/02/12 00:11:19;;;;;;;3.00;2.50;;;;;;;;;;4996372;28;20580;-46
2023/02/12 00:13:45;;;;;;;3.38;2.08;;;;;;;;;;5011653;28;20180;-46
2023/02/12 00:16:13;;;;;;;2.40;2.20;;;;;;;;;;5011721;28;20178;-46
2023/02/12 00:18:39;;;;;;;2.58;2.17;;;;;;;;;;5010108;28;20205;-46
2023/02/12 00:21:07;;;;;;;2.45;2.13;;;;;;;;;;5007236;28;20239;-46
2023/02/12 00:23:33;;;;;;;2.47;2.28;;;;;;;;;;5012390;28;20185;-46
2023/02/12 00:25:59;;;;;;;2.80;2.05;;;;;;;;;;5013010;28;20351;-46
2023/02/12 00:28:25;;;;;;;2.72;2.25;;;;;;;;;;5015317;28;20219;-46
2023/02/12 00:30:51;;;;;;;2.83;2.30;;;;;;;;;;5016007;28;20540;-46
2023/02/12 00:33:17;;;;;;;2.13;1.92;;;;;;;;;;5014325;28;20183;-46
2023/02/12 00:35:43;;;;;;;4.00;2.13;;;;;;;;;;5009833;28;20454;-46
2023/02/12 00:38:09;;;;;;;2.35;2.05;;;;;;;;;;5014666;28;20199;-47
2023/02/12 00:40:34;;;;;;;2.40;2.20;;;;;;;;;;5012900;28;20196;-46
2023/02/12 00:43:00;;;;;;;4.07;2.15;;;;;;;;;;5007630;28;20572;-46
2023/02/12 00:45:26;;;;;;;2.55;2.00;;;;;;;;;;5015846;28;20188;-46
2023/02/12 00:47:52;;;;;;;2.08;1.88;;;;;;;;;;5008382;28;20283;-46
2023/02/12 00:50:18;;;;;;;2.55;2.10;;;;;;;;;;5007079;28;20207;-47
2023/02/12 00:52:44;;;;;;;2.10;2.00;;;;;;;;;;5008740;28;20184;-47
2023/02/12 00:55:10;;;;;;;2.33;2.10;;;;;;;;;;5013792;28;20176;-47
2023/02/12 00:57:36;;;;;;;2.05;1.85;;;;;;;;;;5011860;28;20514;-46
2023/02/12 01:00:02;;;;;;;2.58;2.30;;;;;;;;;;5000304;28;20181;-46
2023/02/12 01:02:27;;;;;;;3.15;2.00;;;;;;;;;;4999757;28;20254;-46
2023/02/12 01:04:53;;;;;;;1.95;1.80;;;;;;;;;;5008281;28;20173;-46
2023/02/12 01:07:19;;;;;;;2.33;2.13;;;;;;;;;;5009731;28;20504;-46
2023/02/12 01:09:45;;;;;;;1.92;1.73;;;;;;;;;;5009697;28;20196;-46
2023/02/12 01:12:11;;;;;;;2.72;2.13;;;;;;;;;;5012386;28;20216;-46
2023/02/12 01:14:37;;;;;;;2.08;1.88;;;;;;;;;;5014461;28;20195;-46
2023/02/12 01:17:03;;;;;;;2.63;2.08;;;;;;;;;;5008761;28;20205;-46
2023/02/12 01:19:29;;;;;;;1.88;1.77;;;;;;;;;;5010471;28;20197;-47
2023/02/12 01:21:55;;;;;;;1.92;1.73;;;;;;;;;;5005570;28;20211;-47
2023/02/12 01:24:21;;;;;;;2.13;1.60;;;;;;;;;;5011981;28;20231;-46
2023/02/12 01:26:47;;;;;;;2.00;1.80;;;;;;;;;;5005014;28;20204;-46
2023/02/12 01:29:13;;;;;;;2.30;2.10;;;;;;;;;;5005142;28;20485;-46
2023/02/12 01:31:39;;;;;;;4.70;1.70;;;;;;;;;;5010977;28;20189;-46
2023/02/12 01:34:05;;;;;;;1.70;1.60;;;;;;;;;;5003411;28;20185;-46
2023/02/12 01:36:31;;;;;;;1.80;1.70;;;;;;;;;;5004123;28;20184;-46
2023/02/12 01:38:58;;;;;;;2.00;1.77;;;;;;;;;;5007133;28;20200;-46
2023/02/12 01:41:27;;;;;;;2.13;1.92;;;;;;;;;;5002877;28;20192;-46
2023/02/12 01:44:14;;;;;;;1.92;1.60;;;;;;;;;;5009130;28;20192;-46
2023/02/12 01:46:40;;;;;;;1.98;1.75;;;;;;;;;;5011625;28;20180;-46
2023/02/12 01:49:08;;;;;;;2.00;1.75;;;;;;;;;;5012497;28;20704;-46
2023/02/12 01:51:35;;;;;;;1.80;1.70;;;;;;;;;;5010376;28;20184;-46
2023/02/12 01:54:04;;;;;;;1.65;1.55;;;;;;;;;;5014560;28;20868;-46
2023/02/12 01:56:31;;;;;;;1.98;1.70;;;;;;;;;;5010323;28;20188;-46
2023/02/12 01:58:57;;;;;;;1.88;1.77;;;;;;;;;;5008666;28;20242;-47
2023/02/12 02:01:25;;;;;;;1.70;1.60;;;;;;;;;;5011494;28;20192;-46
2023/02/12 02:03:53;;;;;;;1.70;1.60;;;;;;;;;;5010110;28;20184;-46
2023/02/12 02:06:26;;;;;;;1.67;1.58;;;;;;;;;;5006689;28;20587;-46
2023/02/12 02:08:52;;;;;;;1.80;1.70;;;;;;;;;;5012864;28;20216;-46
2023/02/12 02:17:11;;;;;;;1.92;1.70;;;;;;;;;;5013276;28;20302;-46
2023/02/12 02:19:43;;;;;;;1.90;1.80;;;;;;;;;;5008321;28;20242;-46
2023/02/12 02:22:30;;;;;;;1.60;1.50;;;;;;;;;;5013453;28;20185;-46
2023/02/12 02:25:14;;;;;;;1.95;1.60;;;;;;;;;;5001734;28;20185;-46
2023/02/12 02:27:55;;;;;;;1.52;1.42;;;;;;;;;;5009857;28;20216;-46
2023/02/12 02:30:24;;;;;;;1.60;1.50;;;;;;;;;;5017619;28;20254;-46
2023/02/12 02:32:57;;;;;;;1.40;1.30;;;;;;;;;;5017516;28;20603;-47
2023/02/12 02:35:29;;;;;;;2.22;1.92;;;;;;;;;;5016569;28;20190;-47
2023/02/12 02:38:03;;;;;;;1.70;1.60;;;;;;;;;;5016538;28;20231;-46
2023/02/12 02:40:55;;;;;;;2.20;1.70;;;;;;;;;;5009839;28;20338;-46
2023/02/12 02:43:28;;;;;;;2.55;1.83;;;;;;;;;;5008876;28;20622;-46
2023/02/12 02:45:56;;;;;;;1.60;1.50;;;;;;;;;;5017027;28;20192;-46
2023/02/12 02:48:34;;;;;;;2.92;1.50;;;;;;;;;;5008976;28;20262;-46
2023/02/12 02:51:06;;;;;;;1.60;1.50;;;;;;;;;;5009393;28;20475;-46
2023/02/12 02:53:34;;;;;;;1.70;1.52;;;;;;;;;;5007759;28;20188;-46
2023/02/12 02:56:02;;;;;;;1.70;1.60;;;;;;;;;;5010168;28;20181;-46
2023/02/12 02:58:40;;;;;;;2.00;1.65;;;;;;;;;;5002444;28;20271;-47
2023/02/12 03:01:09;;;;;;;1.50;1.40;;;;;;;;;;5013200;28;20212;-46
2023/02/12 03:03:39;;;;;;;1.80;1.50;;;;;;;;;;5009921;28;20188;-47
2023/02/12 03:06:08;;;;;;;1.50;1.40;;;;;;;;;;5008331;28;20192;-47
2023/02/12 03:08:37;;;;;;;1.65;1.55;;;;;;;;;;5008494;28;20276;-46
2023/02/12 03:11:10;;;;;;;1.52;1.42;;;;;;;;;;5010593;28;20177;-46
2023/02/12 03:13:38;;;;;;;1.63;1.50;;;;;;;;;;5011989;28;20184;-47
2023/02/12 03:16:11;;;;;;;1.55;1.45;;;;;;;;;;5013863;28;20247;-47
2023/02/12 03:18:42;;;;;;;1.77;1.67;;;;;;;;;;5015651;28;20208;-47
2023/02/12 03:21:13;;;;;;;1.42;1.33;;;;;;;;;;5015555;28;20195;-46
2023/02/12 03:23:42;;;;;;;1.50;1.40;;;;;;;;;;5011538;28;20422;-46
2023/02/12 03:26:12;;;;;;;1.52;1.30;;;;;;;;;;5015915;28;20263;-46
2023/02/12 03:28:38;;;;;;;1.63;1.52;;;;;;;;;;5015494;28;20250;-46
2023/02/12 03:31:30;;;;;;;1.45;1.35;;;;;;;;;;5012766;28;20185;-46
2023/02/12 03:34:02;;;;;;;1.30;1.20;;;;;;;;;;5014888;28;20184;-47
2023/02/12 03:36:38;;;;;;;1.50;1.40;;;;;;;;;;5008964;28;20207;-47
2023/02/12 03:39:10;;;;;;;1.75;1.60;;;;;;;;;;5002938;28;20556;-47
2023/02/12 03:41:41;;;;;;;1.58;1.48;;;;;;;;;;5009276;28;20252;-46
2023/02/12 03:44:10;;;;;;;1.50;1.35;;;;;;;;;;5014128;28;20180;-46
2023/02/12 03:46:42;;;;;;;1.40;1.30;;;;;;;;;;5007738;28;20207;-46
2023/02/12 03:49:16;;;;;;;1.48;1.38;;;;;;;;;;5012803;28;20220;-46
2023/02/12 03:51:43;;;;;;;1.38;1.27;;;;;;;;;;5010866;28;20184;-46
2023/02/12 03:54:10;;;;;;;2.28;1.40;;;;;;;;;;5012833;28;20185;-47
2023/02/12 03:56:48;;;;;;;1.60;1.50;;;;;;;;;;5010092;28;20188;-47
2023/02/12 03:59:14;;;;;;;1.60;1.50;;;;;;;;;;5010588;28;20450;-47
2023/02/12 04:01:41;;;;;;;1.42;1.33;;;;;;;;;;5001179;28;20185;-47
2023/02/12 04:04:07;;;;;;;1.40;1.30;;;;;;;;;;5002687;28;20269;-46
2023/02/12 04:06:33;;;;;;;1.83;1.48;;;;;;;;;;5008709;28;20189;-46
2023/02/12 04:09:02;;;;;;;1.58;1.45;;;;;;;;;;5009830;28;20188;-46
2023/02/12 04:11:43;;;;;;;1.58;1.48;;;;;;;;;;5015854;28;20789;-46
2023/02/12 04:14:17;;;;;;;1.30;1.20;;;;;;;;;;5014591;28;20196;-46
2023/02/12 04:16:45;;;;;;;1.48;1.38;;;;;;;;;;5010836;28;20693;-46
2023/02/12 04:19:14;;;;;;;1.50;1.40;;;;;;;;;;5008883;28;20200;-46
2023/02/12 04:21:52;;;;;;;1.50;1.40;;;;;;;;;;5002361;28;20191;-46
2023/02/12 04:24:23;;;;;;;1.60;1.40;;;;;;;;;;5012795;28;20181;-46
2023/02/12 04:26:54;;;;;;;1.40;1.30;;;;;;;;;;5009699;28;20215;-46
2023/02/12 04:29:28;;;;;;;1.60;1.40;;;;;;;;;;5006908;28;20212;-46
2023/02/12 04:31:56;;;;;;;1.30;1.20;;;;;;;;;;5016105;28;20176;-46
2023/02/12 04:34:22;;;;;;;1.60;1.50;;;;;;;;;;5014371;28;20203;-46
2023/02/12 04:37:02;;;;;;;1.40;1.30;;;;;;;;;;5015528;28;20540;-46
2023/02/12 04:39:30;;;;;;;1.40;1.30;;;;;;;;;;5014977;28;20219;-46
2023/02/12 04:41:59;;;;;;;3.00;1.38;;;;;;;;;;5001856;28;20188;-46
2023/02/12 04:44:27;;;;;;;1.50;1.40;;;;;;;;;;5013849;28;20188;-46
2023/02/12 04:46:53;;;;;;;1.40;1.30;;;;;;;;;;5013825;28;20230;-47
2023/02/12 04:49:20;;;;;;;1.30;1.20;;;;;;;;;;5014809;28;20200;-47
2023/02/12 04:51:46;;;;;;;1.23;1.13;;;;;;;;;;5006739;28;20468;-47
2023/02/12 04:54:13;;;;;;;1.30;1.20;;;;;;;;;;5011251;28;20230;-47
2023/02/12 04:56:39;;;;;;;1.45;1.35;;;;;;;;;;5013886;28;20573;-47
2023/02/12 04:59:05;;;;;;;1.35;1.23;;;;;;;;;;5011219;28;20189;-47
2023/02/12 05:01:33;;;;;;;1.40;1.30;;;;;;;;;;5008076;28;20199;-47
2023/02/12 05:03:59;;;;;;;1.52;1.30;;;;;;;;;;5010247;28;20620;-47
2023/02/12 05:06:25;;;;;;;1.50;1.40;;;;;;;;;;5006927;28;20276;-47
2023/02/12 05:08:52;;;;;;;1.38;1.27;;;;;;;;;;5015309;28;20595;-46
2023/02/12 05:11:18;;;;;;;1.45;1.35;;;;;;;;;;5013410;28;20173;-46
2023/02/12 05:13:47;;;;;;;1.45;1.35;;;;;;;;;;5010301;28;20183;-46
2023/02/12 05:16:13;;;;;;;1.40;1.30;;;;;;;;;;5007324;28;20188;-46
2023/02/12 05:18:39;;;;;;;1.50;1.20;;;;;;;;;;5007585;28;20493;-46
2023/02/12 05:21:05;;;;;;;1.30;1.20;;;;;;;;;;5012482;28;20204;-46
2023/02/12 05:23:35;;;;;;;1.50;1.40;;;;;;;;;;5012629;28;22018;-47
2023/02/12 05:26:02;;;;;;;1.30;1.20;;;;;;;;;;5009931;28;20446;-47
2023/02/12 05:28:28;;;;;;;1.30;1.20;;;;;;;;;;5013594;28;20212;-47
2023/02/12 05:30:54;;;;;;;1.20;1.10;;;;;;;;;;5014413;28;20239;-46
2023/02/12 05:33:20;;;;;;;1.40;1.30;;;;;;;;;;5012260;28;20192;-47
2023/02/12 05:35:46;;;;;;;1.35;1.25;;;;;;;;;;5008534;28;20185;-47
2023/02/12 05:38:12;;;;;;;1.27;1.17;;;;;;;;;;5013186;28;20253;-46
2023/02/12 05:40:39;;;;;;;1.33;1.23;;;;;;;;;;5014558;28;20426;-46
2023/02/12 05:43:05;;;;;;;1.42;1.33;;;;;;;;;;5007634;28;20180;-47
2023/02/12 05:45:32;;;;;;;1.45;1.33;;;;;;;;;;5013983;28;20192;-46
2023/02/12 05:47:58;;;;;;;1.50;1.40;;;;;;;;;;5005602;28;20235;-46
2023/02/12 05:50:24;;;;;;;1.50;1.40;;;;;;;;;;5007114;28;20506;-47
2023/02/12 05:52:50;;;;;;;1.50;1.40;;;;;;;;;;5005794;28;20231;-47
2023/02/12 05:55:16;;;;;;;1.33;1.20;;;;;;;;;;5006442;28;20189;-47
2023/02/12 05:57:41;;;;;;;1.45;1.35;;;;;;;;;;5006550;28;20189;-46
2023/02/12 06:00:08;;;;;;;1.30;1.20;;;;;;;;;;5007736;28;20234;-47
2023/02/12 06:02:34;;;;;;;1.45;1.35;;;;;;;;;;5009581;28;20193;-46
2023/02/12 06:05:00;;;;;;;1.42;1.33;;;;;;;;;;5008528;28;20761;-47
2023/02/12 06:07:26;;;;;;;1.48;1.38;;;;;;;;;;5009100;28;20196;-47
2023/02/12 06:09:53;;;;;;;1.50;1.40;;;;;;;;;;5016346;28;20204;-47
2023/02/12 06:12:19;;;;;;;1.60;1.50;;;;;;;;;;5010347;28;20173;-47
2023/02/12 06:14:45;;;;;;;1.40;1.30;;;;;;;;;;5011959;28;20185;-47
2023/02/12 06:17:11;;;;;;;1.58;1.45;;;;;;;;;;5018261;28;20513;-47
2023/02/12 06:19:37;;;;;;;1.35;1.25;;;;;;;;;;5015607;28;20274;-47
2023/02/12 06:22:03;;;;;;;2.03;1.50;;;;;;;;;;5010870;28;20185;-47
2023/02/12 06:24:29;;;;;;;1.65;1.55;;;;;;;;;;5016720;28;20192;-47
2023/02/12 06:26:55;;;;;;;1.60;1.50;;;;;;;;;;5012530;28;20507;-47
2023/02/12 06:29:21;;;;;;;1.63;1.52;;;;;;;;;;5014917;28;20584;-47
2023/02/12 06:31:47;;;;;;;1.30;1.20;;;;;;;;;;5013483;28;20256;-47
2023/02/12 06:34:13;;;;;;;1.60;1.50;;;;;;;;;;5017827;28;20595;-46
2023/02/12 06:36:40;;;;;;;2.13;1.70;;;;;;;;;;5016924;28;20173;-46
2023/02/12 06:39:06;;;;;;;1.80;1.70;;;;;;;;;;5016506;28;20188;-46
2023/02/12 06:41:33;;;;;;;1.80;1.70;;;;;;;;;;5014872;28;20188;-47
2023/02/12 06:43:59;;;;;;;1.75;1.60;;;;;;;;;;5011914;28;20219;-46
2023/02/12 06:46:25;;;;;;;1.70;1.60;;;;;;;;;;5012771;28;20196;-46
2023/02/12 06:48:58;;;;;;;1.60;1.50;;;;;;;;;;5016206;28;20208;-46
2023/02/12 06:51:24;;;;;;;1.90;1.70;;;;;;;;;;5008788;28;20189;-46
2023/02/12 06:53:51;;;;;;;1.52;1.42;;;;;;;;;;5010314;28;20184;-46
2023/02/12 06:56:18;;;;;;;1.50;1.40;;;;;;;;;;5012867;28;20181;-46
2023/02/12 06:58:44;;;;;;;1.60;1.50;;;;;;;;;;5015694;28;20484;-46
2023/02/12 07:01:12;;;;;;;2.10;1.67;;;;;;;;;;5011702;28;20242;-46
2023/02/12 07:03:38;;;;;;;1.65;1.55;;;;;;;;;;5016044;28;20177;-46
2023/02/12 07:06:04;;;;;;;1.73;1.42;;;;;;;;;;5015569;28;20184;-46
2023/02/12 07:08:30;;;;;;;1.75;1.60;;;;;;;;;;5011591;28;20209;-46
2023/02/12 07:10:56;;;;;;;1.48;1.38;;;;;;;;;;5014326;28;20567;-46
2023/02/12 07:13:22;;;;;;;2.08;1.88;;;;;;;;;;5012205;28;20184;-46
2023/02/12 07:15:48;;;;;;;1.88;1.73;;;;;;;;;;5006423;28;20191;-46
2023/02/12 07:18:14;;;;;;;1.80;1.70;;;;;;;;;;5013491;28;20275;-46
2023/02/12 07:20:40;;;;;;;2.47;1.92;;;;;;;;;;5008919;28;20192;-46
2023/02/12 07:23:05;;;;;;;1.67;1.58;;;;;;;;;;5012570;28;20192;-46
2023/02/12 07:25:31;;;;;;;2.38;1.80;;;;;;;;;;5016148;28;20190;-46
2023/02/12 07:27:57;;;;;;;2.00;1.80;;;;;;;;;;5012159;28;20663;-46
2023/02/12 07:30:23;;;;;;;2.38;1.83;;;;;;;;;;5011633;28;20213;-46
2023/02/12 07:32:49;;;;;;;2.30;2.10;;;;;;;;;;5011325;28;20197;-47
2023/02/12 07:35:15;;;;;;;2.10;1.92;;;;;;;;;;5009678;28;20185;-46
2023/02/12 07:37:41;;;;;;;2.42;1.80;;;;;;;;;;5008850;28;20181;-46
2023/02/12 07:40:07;;;;;;;1.85;1.65;;;;;;;;;;5011875;28;20195;-46
2023/02/12 07:42:33;;;;;;;2.53;2.20;;;;;;;;;;5015211;28;20195;-46
2023/02/12 07:44:59;;;;;;;2.28;2.08;;;;;;;;;;5010560;28;20173;-46
2023/02/12 07:47:25;;;;;;;3.72;2.30;;;;;;;;;;5011188;28;20184;-46
2023/02/12 07:49:51;;;;;;;2.65;2.08;;;;;;;;;;5014003;28;20201;-46
2023/02/12 07:52:17;;;;;;;2.33;2.13;;;;;;;;;;5008428;28;20173;-46
2023/02/12 07:54:43;;;;;;;2.60;2.20;;;;;;;;;;5016034;28;20201;-46
2023/02/12 07:57:08;;;;;;;2.80;2.40;;;;;;;;;;5015633;28;20189;-46
2023/02/12 07:59:34;;;;;;;5.10;2.05;;;;;;;;;;5015171;28;20180;-46
2023/02/12 08:02:00;;;;;;;2.25;2.05;;;;;;;;;;5010003;28;20560;-46
2023/02/12 08:04:26;;;;;;;3.33;2.50;;;;;;;;;;5008447;28;20184;-47
2023/02/12 08:06:53;;;;;;;2.40;2.20;;;;;;;;;;5008465;28;20486;-47
2023/02/12 08:09:21;;;;;;;2.47;2.20;;;;;;;;;;5008191;28;20204;-46
2023/02/12 08:11:47;;;;;;;2.70;2.40;;;;;;;;;;5005306;28;20188;-47
2023/02/12 08:14:14;;;;;;;3.60;2.40;;;;;;;;;;5011865;28;20184;-47
2023/02/12 08:16:40;;;;;;;3.40;2.20;;;;;;;;;;5005283;28;20223;-46
2023/02/12 08:19:07;;;;;;;2.50;2.30;;;;;;;;;;5010268;28;20192;-46
2023/02/12 08:21:33;;;;;;;3.28;2.78;;;;;;;;;;5012090;28;20482;-46
2023/02/12 08:23:59;;;;;;;3.45;2.15;;;;;;;;;;5016083;28;20578;-46
2023/02/12 08:26:27;;;;;;;2.65;2.45;;;;;;;;;;5015567;28;20188;-47
2023/02/12 08:28:58;;;;;;;2.20;2.00;;;;;;;;;;5016247;28;20193;-47
2023/02/12 08:31:26;;;;;;;3.53;2.40;;;;;;;;;;5014288;28;20193;-47
2023/02/12 08:33:53;;;;;;;3.03;2.42;;;;;;;;;;5015209;28;20180;-46
2023/02/12 08:36:20;;;;;;;2.47;2.28;;;;;;;;;;5014944;28;20200;-46
2023/02/12 08:38:47;;;;;;;2.55;2.30;;;;;;;;;;5015583;28;20217;-47
2023/02/12 08:41:14;;;;;;;3.13;2.70;;;;;;;;;;5014358;28;20437;-47
2023/02/12 08:43:40;;;;;;;3.60;2.63;;;;;;;;;;5014686;28;20196;-46
2023/02/12 08:46:08;;;;;;;2.80;2.60;;;;;;;;;;5013904;28;20204;-46
2023/02/12 08:48:34;;;;;;;3.55;3.20;;;;;;;;;;5012063;28;20299;-46
2023/02/12 08:51:04;;;;;;;6.13;4.95;;;;;;;;;;5014502;28;20295;-46
2023/02/12 08:53:29;;;;;;;7.47;5.68;;;;;;;;;;5012670;28;20181;-46
2023/02/12 08:55:55;;;;;;;6.97;5.70;;;;;;;;;;5014118;28;20188;-46
2023/02/12 08:58:21;;;;;;;6.45;5.65;;;;;;;;;;5009392;28;20596;-46
2023/02/12 09:00:47;;;;;;;6.35;4.82;;;;;;;;;;5012362;28;20490;-46
2023/02/12 09:03:13;;;;;;;6.47;4.90;;;;;;;;;;5011355;28;20266;-46
2023/02/12 09:05:39;;;;;;;5.38;4.72;;;;;;;;;;5010138;28;20188;-47
2023/02/12 09:08:06;;;;;;;4.97;4.30;;;;;;;;;;5012507;28;20236;-47
2023/02/12 09:10:32;;;;;;;5.95;4.97;;;;;;;;;;5011748;28;20198;-46
2023/02/12 09:12:58;;;;;;;5.30;4.35;;;;;;;;;;5012487;28;20184;-46
2023/02/12 09:15:23;;;;;;;4.88;4.15;;;;;;;;;;5010994;28;20180;-46
2023/02/12 09:17:49;;;;;;;4.40;4.00;;;;;;;;;;5013101;28;20208;-46
2023/02/12 09:20:15;;;;;;;4.18;3.83;;;;;;;;;;5005290;28;20267;-46
2023/02/12 09:22:41;;;;;;;4.22;3.80;;;;;;;;;;5012925;28;20196;-46
2023/02/12 09:25:07;;;;;;;4.38;3.97;;;;;;;;;;5014781;28;20180;-46
2023/02/12 09:27:33;;;;;;;5.40;4.22;;;;;;;;;;5012603;28;20211;-46
2023/02/12 09:29:59;;;;;;;5.43;4.25;;;;;;;;;;5011016;28;20172;-46
2023/02/12 09:32:25;;;;;;;4.32;3.92;;;;;;;;;;5012372;28;20234;-46
2023/02/12 09:34:51;;;;;;;6.22;4.38;;;;;;;;;;5017562;28;20552;-46
2023/02/12 09:37:17;;;;;;;6.43;4.18;;;;;;;;;;5017319;28;20204;-46
2023/02/12 09:39:43;;;;;;;3.85;3.45;;;;;;;;;;5014925;28;20559;-46
2023/02/12 09:42:31;;;;;;;5.35;3.80;;;;;;;;;;5016914;28;20263;-46
2023/02/12 09:45:06;;;;;;;5.15;3.70;;;;;;;;;;5013628;28;20575;-46
2023/02/12 09:47:55;;;;;;;4.28;3.88;;;;;;;;;;5011591;28;20192;-46
2023/02/12 09:50:36;;;;;;;4.05;3.65;;;;;;;;;;5015334;28;20441;-46
2023/02/12 09:53:02;;;;;;;3.95;3.55;;;;;;;;;;5015654;28;20172;-46
2023/02/12 09:55:30;;;;;;;4.50;3.88;;;;;;;;;;5014968;28;20192;-46
2023/02/12 09:57:56;;;;;;;4.30;3.90;;;;;;;;;;5013370;28;20772;-46
2023/02/12 10:00:26;;;;;;;3.70;3.30;;;;;;;;;;5014623;28;20273;-46
2023/02/12 10:02:53;;;;;;;3.85;3.53;;;;;;;;;;5015445;28;20545;-46
2023/02/12 10:05:22;;;;;;;3.60;3.30;;;;;;;;;;5010253;28;20268;-46
2023/02/12 10:08:08;;;;;;;3.72;3.28;;;;;;;;;;5010635;28;20285;-47
2023/02/12 10:10:34;;;;;;;3.53;3.22;;;;;;;;;;5017984;28;20254;-46
2023/02/12 10:13:04;;;;;;;4.70;3.83;;;;;;;;;;5014197;28;20173;-46
2023/02/12 10:15:42;;;;;;;3.70;3.40;;;;;;;;;;5007667;28;20181;-46
2023/02/12 10:18:26;;;;;;;3.90;3.60;;;;;;;;;;5009366;28;20610;-46
2023/02/12 10:21:11;;;;;;;3.58;3.28;;;;;;;;;;5005371;28;20499;-46
2023/02/12 10:23:37;;;;;;;3.95;3.30;;;;;;;;;;5008212;28;20259;-46
2023/02/12 10:26:09;;;;;;;5.35;3.40;;;;;;;;;;5003098;28;20522;-47
2023/02/12 10:28:38;;;;;;;4.80;3.47;;;;;;;;;;5010529;28;20212;-46
2023/02/12 10:31:07;;;;;;;3.90;3.20;;;;;;;;;;5017550;28;20186;-46
2023/02/12 10:33:38;;;;;;;4.63;3.53;;;;;;;;;;5016814;28;20185;-46
2023/02/12 10:36:14;;;;;;;3.90;3.40;;;;;;;;;;5017048;28;20264;-46
2023/02/12 10:38:42;;;;;;;4.68;3.22;;;;;;;;;;5017710;28;20211;-47
2023/02/12 10:41:10;;;;;;;3.92;3.40;;;;;;;;;;5010736;28;20267;-46
2023/02/12 10:43:36;;;;;;;4.10;3.30;;;;;;;;;;5013964;28;20191;-47
2023/02/12 10:46:02;;;;;;;4.47;3.25;;;;;;;;;;5014785;28;20176;-48
2023/02/12 10:48:39;;;;;;;3.50;3.00;;;;;;;;;;5008682;28;20219;-46
2023/02/12 10:51:08;;;;;;;5.80;3.25;;;;;;;;;;5014748;28;20238;-47
2023/02/12 10:53:38;;;;;;;3.63;2.92;;;;;;;;;;5013679;28;20185;-47
2023/02/12 10:56:23;;;;;;;6.22;3.35;;;;;;;;;;5011543;28;20543;-47
2023/02/12 10:58:49;;;;;;;6.00;2.90;;;;;;;;;;5016163;28;20459;-47
2023/02/12 11:01:17;;;;;;;3.20;2.90;;;;;;;;;;5014596;28;20194;-47
2023/02/12 11:03:43;;;;;;;3.40;3.10;;;;;;;;;;5014886;28;20440;-47
2023/02/12 11:06:11;;;;;;;3.35;3.05;;;;;;;;;;5014746;28;20192;-46
2023/02/12 11:08:38;;;;;;;3.33;3.03;;;;;;;;;;5015881;28;20611;-46
2023/02/12 11:11:06;;;;;;;3.47;3.17;;;;;;;;;;5009582;28;20164;-47
2023/02/12 11:13:32;;;;;;;3.15;2.72;;;;;;;;;;5015001;28;20188;-47
2023/02/12 11:15:59;;;;;;;3.67;3.03;;;;;;;;;;5011361;28;20203;-47
2023/02/12 11:18:31;;;;;;;4.15;3.00;;;;;;;;;;5011564;28;20505;-46
2023/02/12 11:21:00;;;;;;;3.38;3.08;;;;;;;;;;5007883;28;20189;-46
2023/02/12 11:23:29;;;;;;;2.95;2.65;;;;;;;;;;5012447;28;20223;-46
2023/02/12 11:26:04;;;;;;;3.35;3.00;;;;;;;;;;5015917;28;20264;-47
2023/02/12 11:28:31;;;;;;;3.30;2.78;;;;;;;;;;5012476;28;20207;-47
2023/02/12 11:30:57;;;;;;;3.13;2.83;;;;;;;;;;5009115;28;20189;-47
2023/02/12 11:33:24;;;;;;;3.67;3.38;;;;;;;;;;5012994;28;20235;-47
2023/02/12 11:35:53;;;;;;;3.65;2.80;;;;;;;;;;5006024;28;20181;-47
2023/02/12 11:38:28;;;;;;;2.92;2.70;;;;;;;;;;5007626;28;20471;-46
2023/02/12 11:40:56;;;;;;;3.50;3.20;;;;;;;;;;5012982;28;20199;-46
2023/02/12 11:43:23;;;;;;;4.90;3.17;;;;;;;;;;5010059;28;20188;-46
2023/02/12 11:45:51;;;;;;;3.13;2.78;;;;;;;;;;5012665;28;20507;-46
2023/02/12 11:48:23;;;;;;;2.53;2.33;;;;;;;;;;5011888;28;20249;-46
2023/02/12 11:50:50;;;;;;;2.90;2.60;;;;;;;;;;5015204;28;20177;-47
2023/02/12 11:53:20;;;;;;;3.10;2.80;;;;;;;;;;5009478;28;20518;-47
2023/02/12 11:55:53;;;;;;;3.58;2.53;;;;;;;;;;5007067;28;20196;-47
2023/02/12 11:58:24;;;;;;;3.00;2.70;;;;;;;;;;5008238;28;20185;-47
2023/02/12 12:00:56;;;;;;;3.05;2.70;;;;;;;;;;5014529;28;20230;-47
2023/02/12 12:03:28;;;;;;;2.80;2.60;;;;;;;;;;5010311;28;20197;-46
2023/02/12 12:05:59;;;;;;;2.42;2.22;;;;;;;;;;5008305;28;20586;-46
2023/02/12 12:08:51;;;;;;;4.13;2.50;;;;;;;;;;5010012;28;20634;-47
2023/02/12 12:11:17;;;;;;;3.15;2.90;;;;;;;;;;4996571;28;20193;-47
2023/02/12 12:13:57;;;;;;;2.60;2.30;;;;;;;;;;5008488;28;20315;-47
2023/02/12 12:22:26;;;;;;;2.55;2.35;;;;;;;;;;5005203;28;20275;-47
2023/02/12 12:25:12;;;;;;;2.60;2.40;;;;;;;;;;5014590;28;20571;-47
2023/02/12 12:28:02;;;;;;;2.60;2.40;;;;;;;;;;5013071;28;20304;-46
2023/02/12 12:30:40;;;;;;;2.67;2.47;;;;;;;;;;5015130;28;20177;-46
2023/02/12 12:33:12;;;;;;;2.75;2.17;;;;;;;;;;5012680;28;20832;-46
2023/02/12 12:35:42;;;;;;;2.50;2.30;;;;;;;;;;5014864;28;20173;-46
2023/02/12 12:38:14;;;;;;;2.90;2.35;;;;;;;;;;5014313;28;20208;-46
2023/02/12 12:41:07;;;;;;;2.30;2.13;;;;;;;;;;5012608;28;20239;-46
2023/02/12 12:43:43;;;;;;;2.45;2.25;;;;;;;;;;5007426;28;20601;-45
2023/02/12 12:46:18;;;;;;;2.47;2.28;;;;;;;;;;5004131;28;20189;-45
2023/02/12 12:48:59;;;;;;;2.40;2.20;;;;;;;;;;5007265;28;20240;-45
2023/02/12 12:51:45;;;;;;;2.95;2.50;;;;;;;;;;5000162;28;20575;-44
2023/02/12 12:54:20;;;;;;;2.53;2.33;;;;;;;;;;4983167;28;20196;-45
2023/02/12 12:56:52;;;;;;;2.75;2.47;;;;;;;;;;5008135;28;20191;-44
2023/02/12 12:59:21;;;;;;;3.63;2.50;;;;;;;;;;5013577;28;20660;-46
2023/02/12 13:01:52;;;;;;;2.15;1.98;;;;;;;;;;5006704;28;20184;-45
2023/02/12 13:04:18;;;;;;;3.08;2.15;;;;;;;;;;5012892;28;20185;-47
2023/02/12 13:06:49;;;;;;;4.38;2.42;;;;;;;;;;5007436;28;20247;-46
2023/02/12 13:09:42;;;;;;;3.08;2.10;;;;;;;;;;5010117;28;20200;-47
2023/02/12 13:12:27;;;;;;;2.30;2.05;;;;;;;;;;5004276;28;20176;-45
2023/02/12 13:14:59;;;;;;;2.90;2.40;;;;;;;;;;5011056;28;20584;-45
2023/02/12 13:17:29;;;;;;;3.05;2.45;;;;;;;;;;5007225;28;20180;-47
2023/02/12 13:20:00;;;;;;;2.30;2.10;;;;;;;;;;5010796;28;20188;-46
2023/02/12 13:22:34;;;;;;;3.17;2.22;;;;;;;;;;5009081;28;20184;-44
2023/02/12 13:25:05;;;;;;;2.92;2.13;;;;;;;;;;5013930;28;20194;-45
2023/02/12 13:27:34;;;;;;;2.90;2.30;;;;;;;;;;5013008;28;20200;-45
2023/02/12 13:30:06;;;;;;;3.20;2.00;;;;;;;;;;5007652;28;20611;-46
2023/02/12 13:32:42;;;;;;;3.88;2.20;;;;;;;;;;5008852;28;20231;-45
2023/02/12 13:35:14;;;;;;;3.85;2.22;;;;;;;;;;5012272;28;20180;-45
2023/02/12 13:37:44;;;;;;;2.97;2.20;;;;;;;;;;5009713;28;20201;-45
2023/02/12 13:40:21;;;;;;;1.95;1.75;;;;;;;;;;5012703;28;20172;-46
2023/02/12 13:42:58;;;;;;;2.33;2.10;;;;;;;;;;5008261;28;20192;-45
2023/02/12 13:45:30;;;;;;;1.95;1.85;;;;;;;;;;5008381;28;20180;-45
2023/02/12 13:48:06;;;;;;;2.63;1.85;;;;;;;;;;5009739;28;20583;-45
2023/02/12 13:50:35;;;;;;;2.40;2.03;;;;;;;;;;5006103;28;20546;-45
2023/02/12 13:53:06;;;;;;;3.25;2.05;;;;;;;;;;5011835;28;20246;-45
2023/02/12 13:55:37;;;;;;;2.67;2.10;;;;;;;;;;5012410;28;20225;-45
2023/02/12 13:58:22;;;;;;;4.43;2.40;;;;;;;;;;5012832;28;20259;-45
2023/02/12 14:00:51;;;;;;;2.97;2.00;;;;;;;;;;5008162;28;20199;-45
2023/02/12 14:03:22;;;;;;;2.78;2.13;;;;;;;;;;5008704;28;20227;-45
2023/02/12 14:05:48;;;;;;;2.10;1.90;;;;;;;;;;5010808;28;20189;-45
2023/02/12 14:08:31;;;;;;;5.13;2.15;;;;;;;;;;5000214;28;20219;-45
2023/02/12 14:11:04;;;;;;;4.75;2.05;;;;;;;;;;5013192;28;20196;-45
2023/02/12 14:13:33;;;;;;;7.63;2.17;;;;;;;;;;5009541;28;20405;-45
2023/02/12 14:16:17;;;;;;;1.88;1.73;;;;;;;;;;5014675;28;20447;-45
2023/02/12 14:18:43;;;;;;;2.38;2.03;;;;;;;;;;5014258;28;20214;-45
2023/02/12 14:21:09;;;;;;;2.38;1.90;;;;;;;;;;5017700;28;20196;-45
2023/02/12 14:23:35;;;;;;;2.08;1.88;;;;;;;;;;5017101;28;20275;-45
2023/02/12 14:26:02;;;;;;;7.53;2.03;;;;;;;;;;5011841;28;20228;-45
2023/02/12 14:28:47;;;;;;;4.68;2.20;;;;;;;;;;5016268;28;20236;-45
2023/02/12 14:31:21;;;;;;;4.15;1.98;;;;;;;;;;5010615;28;20177;-45
2023/02/12 14:33:48;;;;;;;2.30;1.77;;;;;;;;;;5016874;28;20252;-45
2023/02/12 14:36:14;;;;;;;2.17;2.00;;;;;;;;;;5017739;28;20559;-46
2023/02/12 14:38:57;;;;;;;2.83;1.85;;;;;;;;;;5017036;28;20242;-46
2023/02/12 14:41:58;;;;;;;2.75;2.30;;;;;;;;;;5008676;28;20216;-46
2023/02/12 14:44:19;;;;;;;3.22;1.95;;;;;;;;;;5008163;28;20264;-46
2023/02/12 14:46:51;;;;;;;2.25;1.73;;;;;;;;;;5010803;28;20204;-46
2023/02/12 14:49:25;;;;;;;2.75;1.90;;;;;;;;;;5016056;28;20474;-46
2023/02/12 14:51:51;;;;;;;3.53;1.85;;;;;;;;;;5009601;28;20529;-46
2023/02/12 14:54:21;;;;;;;2.88;2.20;;;;;;;;;;5016031;28;20259;-46
2023/02/12 14:56:48;;;;;;;2.22;1.83;;;;;;;;;;5015172;28;20177;-46
2023/02/12 14:59:17;;;;;;;2.30;1.95;;;;;;;;;;5013207;28;20548;-46
2023/02/12 15:01:43;;;;;;;2.08;1.70;;;;;;;;;;5011325;28;20180;-46
2023/02/12 15:04:16;;;;;;;3.47;2.42;;;;;;;;;;5016982;28;20227;-46
2023/02/12 15:06:48;;;;;;;2.10;2.00;;;;;;;;;;5007567;28;20234;-46
2023/02/12 15:09:16;;;;;;;2.78;1.90;;;;;;;;;;5008998;28;20216;-47